Time;durP1;ratioP1;P1;durP2;ratioP2;P2;SDS_P1;SDS_P2;PMS_P1;PMS_P2;Temp;Humidity;BMP_temperature;BMP_pressure;BME280_temperature;BME280_humidity;BME280_pressure;Samples;Min_cycle;Max_cycle;Signal;HPM_P1;HPM_P2
2021/11/10 00:00:27;;;;;;;12.38;8.43;;;4.40;99.90;;;;;;5056225;28;20032;-68
2021/11/10 00:02:53;;;;;;;16.60;12.40;;;4.40;99.90;;;;;;5056058;28;20112;-68
2021/11/10 00:05:20;;;;;;;11.02;9.70;;;4.40;99.90;;;;;;5056337;28;20017;-68
2021/11/10 00:07:46;;;;;;;15.85;11.98;;;4.80;99.90;;;;;;5056966;28;20029;-68
2021/11/10 00:10:12;;;;;;;;;;;4.50;99.90;;;;;;5076808;28;20031;-68
2021/11/10 00:12:39;;;;;;;12.13;8.40;;;4.40;99.90;;;;;;5078571;28;19930;-68
2021/11/10 00:15:06;;;;;;;13.27;10.23;;;4.30;99.90;;;;;;5079603;28;20056;-68
2021/11/10 00:17:32;;;;;;;15.15;9.52;;;4.60;99.90;;;;;;5070707;28;20051;-68
2021/11/10 00:19:58;;;;;;;;;;;4.40;99.90;;;;;;5060532;28;20025;-68
2021/11/10 00:22:25;;;;;;;16.35;10.18;;;4.10;99.90;;;;;;5059720;28;19905;-68
2021/11/10 00:24:52;;;;;;;16.70;11.45;;;4.30;99.90;;;;;;5059729;28;20542;-68
2021/11/10 00:27:18;;;;;;;14.32;11.13;;;4.20;99.90;;;;;;5059774;28;20032;-68
2021/11/10 00:29:44;;;;;;;13.30;10.15;;;4.60;99.90;;;;;;5060161;28;20025;-68
2021/11/10 00:32:10;;;;;;;;;;;4.80;99.90;;;;;;5060046;28;20035;-68
2021/11/10 00:34:36;;;;;;;14.48;10.10;;;4.20;99.90;;;;;;5058338;28;19905;-68
2021/11/10 00:37:01;;;;;;;;;;;4.10;99.90;;;;;;5059791;28;20484;-68
2021/11/10 00:39:27;;;;;;;15.65;10.98;;;3.90;99.90;;;;;;5059591;28;20343;-68
2021/11/10 00:41:53;;;;;;;;;;;3.80;99.90;;;;;;5060019;28;20056;-68
2021/11/10 00:44:19;;;;;;;19.27;11.73;;;4.70;99.90;;;;;;5059465;28;20385;-68
2021/11/10 00:46:44;;;;;;;;;;;3.70;99.90;;;;;;5059882;28;20029;-68
2021/11/10 00:49:10;;;;;;;21.17;13.15;;;4.80;99.90;;;;;;5059242;28;19911;-68
2021/11/10 00:51:36;;;;;;;;;;;4.40;99.90;;;;;;5059583;28;20029;-68
2021/11/10 00:54:02;;;;;;;19.92;11.10;;;4.40;99.90;;;;;;5059287;28;19991;-68
2021/11/10 00:56:28;;;;;;;;;;;3.80;99.90;;;;;;5059468;28;20098;-68
2021/11/10 00:58:54;;;;;;;18.70;12.05;;;4.30;99.90;;;;;;5059420;28;19911;-68
2021/11/10 01:01:20;;;;;;;16.85;11.88;;;4.40;99.90;;;;;;5058992;28;20118;-68
2021/11/10 01:03:46;;;;;;;;;;;4.50;99.90;;;;;;5059696;28;20028;-68
2021/11/10 01:06:12;;;;;;;17.40;11.77;;;4.20;99.90;;;;;;5058932;28;19911;-68
2021/11/10 01:08:38;;;;;;;15.85;12.07;;;4.60;99.90;;;;;;5067250;28;20025;-68
2021/11/10 01:11:04;;;;;;;;;;;3.70;99.90;;;;;;5079375;28;20476;-68
2021/11/10 01:13:30;;;;;;;13.25;10.20;;;4.30;99.90;;;;;;5079124;28;19912;-68
2021/11/10 01:15:55;;;;;;;;;;;3.80;99.90;;;;;;5084827;28;20051;-68
2021/11/10 01:18:21;;;;;;;20.42;9.80;;;3.50;99.90;;;;;;5058663;28;19916;-68
2021/11/10 01:20:47;;;;;;;;;;;3.80;99.90;;;;;;5059383;28;20043;-68
2021/11/10 01:23:13;;;;;;;16.90;10.63;;;4.00;99.90;;;;;;5057880;28;19905;-68
2021/11/10 01:25:39;;;;;;;;;;;3.60;99.90;;;;;;5057663;28;20031;-68
2021/11/10 01:28:09;;;;;;;13.73;10.05;;;;;;;;;;5058787;28;20699;-68
2021/11/10 01:30:35;;;;;;;14.43;10.68;;;4.00;99.90;;;;;;5058612;28;20028;-68
2021/11/10 01:33:01;;;;;;;21.33;12.75;;;3.30;99.90;;;;;;5058463;28;20123;-68
2021/11/10 01:35:27;;;;;;;;;;;4.40;99.90;;;;;;5058858;28;20035;-68
2021/11/10 01:37:53;;;;;;;17.92;10.98;;;3.80;99.90;;;;;;5058425;28;19931;-68
2021/11/10 01:40:20;;;;;;;;;;;3.90;99.90;;;;;;5058895;28;20040;-68
2021/11/10 01:42:47;;;;;;;21.60;11.00;;;3.50;99.90;;;;;;5058753;28;19912;-68
2021/11/10 01:45:15;;;;;;;13.48;9.40;;;3.50;99.90;;;;;;5057113;28;20035;-68
2021/11/10 01:47:42;;;;;;;14.77;10.55;;;3.60;99.90;;;;;;5056807;28;20039;-68
2021/11/10 01:50:11;;;;;;;16.67;13.15;;;3.90;99.90;;;;;;5058188;28;20065;-68
2021/11/10 01:52:37;;;;;;;19.42;10.77;;;3.50;99.90;;;;;;5058294;28;20280;-68
2021/11/10 01:55:05;;;;;;;16.00;10.98;;;4.00;99.90;;;;;;5057982;28;20095;-68
2021/11/10 01:57:31;;;;;;;15.32;11.25;;;3.50;99.90;;;;;;5058228;28;20033;-68
2021/11/10 02:00:17;;;;;;;20.05;11.70;;;3.90;99.90;;;;;;5057986;28;20067;-68
2021/11/10 02:02:44;;;;;;;17.97;12.37;;;4.20;99.90;;;;;;5058067;28;20025;-68
2021/11/10 02:05:10;;;;;;;;;;;4.70;99.90;;;;;;5058228;28;20420;-68
2021/11/10 02:07:37;;;;;;;28.17;12.07;;;4.10;99.90;;;;;;5057886;28;20320;-68
2021/11/10 02:10:05;;;;;;;16.08;9.35;;;4.50;99.90;;;;;;5077615;28;20021;-68
2021/11/10 02:12:31;;;;;;;21.77;12.65;;;4.50;99.90;;;;;;5078021;28;20040;-68
2021/11/10 02:14:59;;;;;;;20.30;12.80;;;4.80;99.90;;;;;;5077676;28;20404;-68
2021/11/10 02:17:25;;;;;;;18.42;11.88;;;4.50;99.90;;;;;;5069895;28;20025;-68
2021/11/10 02:19:51;;;;;;;23.10;12.68;;;4.60;99.90;;;;;;5057826;28;20088;-68
2021/11/10 02:22:19;;;;;;;15.45;10.60;;;4.60;99.90;;;;;;5057600;28;20025;-68
2021/11/10 02:24:46;;;;;;;19.05;10.90;;;4.60;99.90;;;;;;5057950;28;20017;-68
2021/11/10 02:27:22;;;;;;;16.80;11.90;;;4.80;99.90;;;;;;5057965;28;20029;-68
2021/11/10 02:29:50;;;;;;;17.88;12.93;;;4.90;99.90;;;;;;5057665;28;20028;-68
2021/11/10 02:32:17;;;;;;;16.02;11.55;;;5.00;99.90;;;;;;5057206;28;20029;-68
2021/11/10 02:34:44;;;;;;;19.13;11.40;;;4.70;99.90;;;;;;5057336;28;20023;-68
2021/11/10 02:37:12;;;;;;;16.60;10.50;;;4.70;99.90;;;;;;5057032;28;20370;-68
2021/11/10 02:39:38;;;;;;;17.90;11.70;;;4.80;99.90;;;;;;5057369;28;20021;-68
2021/11/10 02:42:05;;;;;;;;;;;5.10;99.90;;;;;;5057516;28;20039;-68
2021/11/10 02:44:31;;;;;;;15.82;9.45;;;4.40;99.90;;;;;;5057322;28;19904;-68
2021/11/10 02:46:57;;;;;;;25.52;12.48;;;4.40;99.90;;;;;;5057042;28;20031;-68
2021/11/10 02:49:23;;;;;;;;;;;5.00;99.90;;;;;;5056479;28;20063;-68
2021/11/10 02:51:58;;;;;;;14.75;9.25;;;4.30;99.90;;;;;;5056941;28;19905;-68
2021/11/10 02:54:25;;;;;;;13.20;9.88;;;4.10;99.90;;;;;;5057026;28;20092;-68
2021/11/10 02:56:55;;;;;;;15.55;11.40;;;4.90;99.90;;;;;;5056792;28;20033;-68
2021/11/10 02:59:22;;;;;;;18.55;11.35;;;4.00;99.90;;;;;;5057123;28;20017;-68
2021/11/10 03:01:49;;;;;;;19.52;10.52;;;4.90;99.90;;;;;;5056763;28;20025;-68
2021/11/10 03:04:30;;;;;;;20.35;11.07;;;4.20;99.90;;;;;;5056951;28;20047;-68
2021/11/10 03:06:56;;;;;;;12.77;9.40;;;4.40;99.90;;;;;;5063825;28;20039;-68
2021/11/10 03:09:25;;;;;;;13.25;9.30;;;4.40;99.90;;;;;;5076880;28;20016;-68
2021/11/10 03:11:53;;;;;;;17.02;9.55;;;4.20;99.90;;;;;;5076969;28;20020;-68
2021/11/10 03:14:20;;;;;;;21.00;10.57;;;3.90;99.90;;;;;;5076773;28;20200;-68
2021/11/10 03:16:46;;;;;;;17.00;12.13;;;4.20;99.90;;;;;;5075965;28;20072;-68
2021/11/10 03:19:12;;;;;;;13.25;9.63;;;3.70;99.90;;;;;;5056338;28;20013;-67
2021/11/10 03:21:38;;;;;;;;;;;4.20;99.90;;;;;;5057061;28;20025;-68
2021/11/10 03:24:04;;;;;;;15.82;10.48;;;4.30;99.90;;;;;;5056586;28;19904;-68
2021/11/10 03:26:31;;;;;;;14.32;9.55;;;3.70;99.90;;;;;;5056632;28;20021;-68
2021/11/10 03:28:57;;;;;;;17.42;9.80;;;3.40;99.90;;;;;;5056515;28;20158;-68
2021/11/10 03:31:22;;;;;;;;;;;3.50;99.90;;;;;;5056967;28;20044;-68
2021/11/10 03:33:48;;;;;;;12.02;9.40;;;3.50;99.90;;;;;;5056265;28;19912;-68
2021/11/10 03:36:15;;;;;;;;;;;3.90;99.90;;;;;;5055738;28;20029;-68
2021/11/10 03:38:41;;;;;;;15.88;9.65;;;3.90;99.90;;;;;;5056417;28;19909;-67
2021/11/10 03:41:07;;;;;;;17.55;10.05;;;3.10;99.90;;;;;;5056461;28;20025;-68
2021/11/10 03:43:35;;;;;;;16.33;9.35;;;4.30;99.90;;;;;;5056349;28;20432;-68
2021/11/10 03:46:02;;;;;;;15.20;9.65;;;3.60;99.90;;;;;;5055028;28;20021;-68
2021/11/10 03:48:28;;;;;;;19.85;11.63;;;3.70;99.90;;;;;;5060006;28;20425;-67
2021/11/10 03:50:54;;;;;;;17.63;10.77;;;4.00;99.90;;;;;;5060540;28;20028;-68
2021/11/10 03:53:19;;;;;;;;;;;3.40;99.90;;;;;;5060743;28;20029;-68
2021/11/10 03:55:45;;;;;;;31.05;13.07;;;2.90;99.90;;;;;;5060632;28;19947;-68
2021/11/10 03:58:11;;;;;;;;;;;3.00;99.90;;;;;;5060694;28;20025;-67
2021/11/10 04:00:37;;;;;;;15.00;9.43;;;2.90;99.90;;;;;;5058997;28;19944;-68
2021/11/10 04:03:03;;;;;;;21.17;10.95;;;3.70;99.90;;;;;;5060032;28;20036;-68
2021/11/10 04:05:29;;;;;;;;;;;3.60;99.90;;;;;;5060686;28;20701;-68
2021/11/10 04:07:55;;;;;;;14.82;8.93;;;3.30;99.90;;;;;;5062291;28;19911;-68
2021/11/10 04:10:22;;;;;;;19.85;9.70;;;3.60;99.90;;;;;;5080193;28;20107;-68
2021/11/10 04:12:48;;;;;;;17.48;9.90;;;3.30;99.90;;;;;;5080157;28;20021;-68
2021/11/10 04:15:14;;;;;;;;;;;3.10;99.90;;;;;;5082831;28;20052;-68
2021/11/10 04:17:40;;;;;;;13.55;9.02;;;3.40;99.90;;;;;;5067383;28;20384;-68
2021/11/10 04:20:08;;;;;;;17.63;9.73;;;3.60;99.90;;;;;;5060044;28;20056;-68
2021/11/10 04:22:34;;;;;;;10.68;8.25;;;2.50;99.90;;;;;;5059723;28;20071;-68
2021/11/10 04:25:00;;;;;;;;;;;3.20;99.90;;;;;;5060309;28;20029;-68
2021/11/10 04:27:26;;;;;;;9.35;8.13;;;3.60;99.90;;;;;;5059841;28;19919;-68
2021/11/10 04:29:52;;;;;;;14.55;7.95;;;3.90;99.90;;;;;;5059846;28;20057;-68
2021/11/10 04:32:19;;;;;;;19.17;12.35;;;4.10;99.90;;;;;;5059525;28;20044;-68
2021/11/10 04:34:45;;;;;;;21.05;11.70;;;;;;;;;;5058538;28;20024;-67
2021/11/10 04:37:13;;;;;;;15.50;10.38;;;3.10;99.90;;;;;;5059342;28;20029;-68
2021/11/10 04:39:39;;;;;;;17.20;10.55;;;;;;;;;;5059672;28;20489;-68
2021/11/10 04:42:06;;;;;;;18.73;9.27;;;2.90;99.90;;;;;;5059532;28;20021;-68
2021/11/10 04:44:32;;;;;;;13.57;9.40;;;2.90;99.90;;;;;;5059481;28;20025;-68
2021/11/10 04:46:58;;;;;;;;;;;;;;;;;;5059609;28;20032;-68
2021/11/10 04:49:27;;;;;;;15.05;10.40;;;;;;;;;;5059485;28;19911;-68
2021/11/10 04:51:53;;;;;;;21.48;12.88;;;3.90;99.90;;;;;;5059213;28;20082;-68
2021/11/10 04:54:20;;;;;;;;;;;;;;;;;;5059725;28;20104;-68
2021/11/10 04:56:46;;;;;;;15.40;9.40;;;;;;;;;;5059393;28;19912;-67
2021/11/10 04:59:13;;;;;;;21.85;10.55;;;;;;;;;;5059573;28;20021;-68
2021/11/10 05:01:59;;;;;;;17.00;10.60;;;;;;;;;;5057722;28;20067;-68
2021/11/10 05:04:25;;;;;;;19.95;11.23;;;;;;;;;;5059209;28;20036;-67
2021/11/10 05:06:51;;;;;;;16.67;10.35;;;;;;;;;;5059062;28;20485;-67
2021/11/10 05:09:17;;;;;;;14.82;10.63;;;;;;;;;;5071198;28;20027;-68
2021/11/10 05:11:43;;;;;;;20.48;11.20;;;2.70;99.90;;;;;;5079393;28;20028;-68
2021/11/10 05:14:09;;;;;;;;;;;;;;;;;;5079429;28;20100;-68
2021/11/10 05:16:35;;;;;;;18.65;12.57;;;;;;;;;;5078830;28;19920;-67
2021/11/10 05:19:01;;;;;;;19.40;12.50;;;;;;;;;;5058641;28;20075;-68
2021/11/10 05:21:27;;;;;;;15.52;10.93;;;;;;;;;;5065690;28;20031;-68
2021/11/10 05:23:54;;;;;;;15.48;10.82;;;;;;;;;;5078754;28;20029;-67
2021/11/10 05:26:20;;;;;;;13.48;10.90;;;;;;;;;;5078852;28;20032;-68
2021/11/10 05:28:47;;;;;;;14.23;11.35;;;;;;;;;;5078798;28;20040;-67
2021/11/10 05:31:13;;;;;;;18.98;11.75;;;2.90;99.90;;;;;;5078908;28;20106;-67
2021/11/10 05:33:39;;;;;;;;;;;;;;;;;;5078745;28;20021;-68
2021/11/10 05:36:05;;;;;;;23.02;13.25;;;;;;;;;;5078541;28;19931;-67
2021/11/10 05:38:32;;;;;;;20.48;12.07;;;;;;;;;;5078336;28;20021;-68
2021/11/10 05:40:58;;;;;;;25.27;11.90;;;;;;;;;;5078627;28;20393;-67
2021/11/10 05:43:25;;;;;;;17.92;12.20;;;;;;;;;;5078459;28;20056;-67
2021/11/10 05:45:51;;;;;;;24.45;12.90;;;;;;;;;;5078491;28;20025;-68
2021/11/10 05:48:17;;;;;;;23.38;12.75;;;;;;;;;;5078158;28;20449;-68
2021/11/10 05:50:44;;;;;;;21.83;12.68;;;;;;;;;;5078500;28;20032;-68
2021/11/10 05:53:10;;;;;;;17.40;12.55;;;;;;;;;;5078099;28;20035;-68
2021/11/10 05:55:38;;;;;;;19.20;12.20;;;;;;;;;;5078143;28;20028;-67
2021/11/10 05:58:04;;;;;;;22.42;13.15;;;;;;;;;;5078055;28;20055;-67
2021/11/10 06:00:31;;;;;;;22.23;14.45;;;;;;;;;;5078207;28;20032;-67
2021/11/10 06:02:57;;;;;;;20.35;13.73;;;;;;;;;;5077814;28;20019;-67
2021/11/10 06:05:23;;;;;;;21.95;12.98;;;;;;;;;;5070358;28;20055;-66
2021/11/10 06:07:50;;;;;;;18.95;13.32;;;;;;;;;;5068153;28;20536;-66
2021/11/10 06:10:17;;;;;;;24.55;13.32;;;;;;;;;;5062548;28;20037;-68
2021/11/10 06:12:44;;;;;;;16.27;12.43;;;;;;;;;;5072925;28;20036;-65
2021/11/10 06:15:10;;;;;;;19.95;12.57;;;;;;;;;;5079421;28;20062;-66
2021/11/10 06:17:37;;;;;;;15.98;11.93;;;;;;;;;;5067380;28;20108;-66
2021/11/10 06:20:04;;;;;;;14.43;11.13;;;;;;;;;;5057191;28;20503;-66
2021/11/10 06:22:31;;;;;;;15.60;13.18;;;;;;;;;;5060477;28;20048;-66
2021/11/10 06:24:58;;;;;;;21.92;14.07;;;;;;;;;;5069139;28;20036;-66
2021/11/10 06:27:24;;;;;;;22.25;15.30;;;;;;;;;;5055742;28;20036;-66
2021/11/10 06:29:50;;;;;;;17.80;13.10;;;;;;;;;;5057566;28;20108;-66
2021/11/10 06:32:16;;;;;;;22.95;15.30;;;;;;;;;;5057287;28;20445;-66
2021/11/10 06:34:42;;;;;;;13.82;12.00;;;;;;;;;;5057012;28;20500;-65
2021/11/10 06:37:09;;;;;;;19.85;14.80;;;;;;;;;;5057185;28;20025;-66
2021/11/10 06:39:35;;;;;;;15.45;12.80;;;;;;;;;;5057321;28;20031;-66
2021/11/10 06:42:01;;;;;;;14.55;12.82;;;;;;;;;;5056033;28;20096;-66
2021/11/10 06:44:27;;;;;;;16.17;13.52;;;;;;;;;;5057370;28;20033;-66
2021/11/10 06:46:53;;;;;;;;;;;;;;;;;;5057315;28;20055;-66
2021/11/10 06:49:19;;;;;;;14.65;12.70;;;;;;;;;;5057401;28;20393;-66
2021/11/10 06:51:45;;;;;;;;;;;;;;;;;;5057677;28;20033;-66
2021/11/10 06:54:13;;;;;;;13.82;12.45;;;;;;;;;;5057144;28;20383;-66
2021/11/10 06:56:39;;;;;;;14.82;12.30;;;;;;;;;;5057070;28;20032;-66
2021/11/10 06:59:05;;;;;;;14.00;12.60;;;;;;;;;;5057087;28;20122;-66
2021/11/10 07:01:32;;;;;;;15.63;11.75;;;;;;;;;;5056820;28;20547;-66
2021/11/10 07:03:58;;;;;;;14.27;12.75;;;;;;;;;;5057004;28;20025;-66
2021/11/10 07:06:24;;;;;;;16.45;11.50;;;;;;;;;;5056693;28;20028;-67
2021/11/10 07:10:27;;;;;;;15.70;14.00;;;;;;;;;;5114710;27;20384;-67
2021/11/10 07:12:54;;;;;;;13.88;12.48;;;;;;;;;;5114500;28;20047;-67
2021/11/10 07:15:20;;;;;;;28.85;14.13;;;;;;;;;;5108571;28;20039;-67
2021/11/10 07:17:46;;;;;;;17.77;11.68;;;;;;;;;;5093868;28;20056;-67
2021/11/10 07:20:12;;;;;;;16.73;13.93;;;;;;;;;;5094425;28;20103;-67
2021/11/10 07:22:38;;;;;;;22.23;14.45;;;;;;;;;;5093913;28;20113;-67
2021/11/10 07:25:05;;;;;;;18.77;13.82;;;;;;;;;;5093986;28;20024;-67
2021/11/10 07:27:33;;;;;;;19.33;13.93;;;;;;;;;;5093902;28;20029;-67
2021/11/10 07:30:00;;;;;;;19.65;13.02;;;;;;;;;;5093807;28;20040;-67
2021/11/10 07:32:26;;;;;;;22.50;13.63;;;;;;;;;;5093469;28;20024;-67
2021/11/10 07:34:52;;;;;;;18.77;12.38;;;;;;;;;;5093761;28;20499;-67
2021/11/10 07:37:18;;;;;;;;;;;;;;;;;;5092598;28;20403;-67
2021/11/10 07:39:45;;;;;;;19.35;12.02;;;;;;;;;;5093940;28;19904;-67
2021/11/10 07:42:11;;;;;;;26.15;14.25;;;;;;;;;;5093470;28;20035;-67
2021/11/10 07:44:39;;;;;;;15.27;11.43;;;;;;;;;;5093528;28;20033;-67
2021/11/10 07:47:14;;;;;;;19.17;13.13;;;;;;;;;;5093320;28;20020;-67
2021/11/10 07:49:42;;;;;;;15.27;12.05;;;3.30;99.90;;;;;;5092078;28;20032;-67
2021/11/10 07:52:08;;;;;;;15.32;11.80;;;;;;;;;;5093180;28;20032;-67
2021/11/10 07:54:34;;;;;;;12.07;10.77;;;;;;;;;;5093318;28;20107;-67
2021/11/10 07:57:00;;;;;;;11.23;8.93;;;;;;;;;;5091891;28;20024;-67
2021/11/10 07:59:26;;;;;;;14.13;8.93;;;5.40;99.90;;;;;;5093271;28;20031;-67
2021/11/10 08:01:52;;;;;;;;;;;3.90;99.90;;;;;;5093301;28;20072;-67
2021/11/10 08:04:17;;;;;;;10.40;7.55;;;5.40;99.90;;;;;;5093274;28;20394;-67
2021/11/10 08:06:43;;;;;;;;;;;5.70;99.90;;;;;;5093526;28;20028;-67
2021/11/10 08:09:09;;;;;;;10.20;6.68;;;5.90;99.90;;;;;;5092913;28;20280;-67
2021/11/10 08:11:35;;;;;;;;;;;6.00;99.90;;;;;;5093347;28;20072;-67
2021/11/10 08:14:01;;;;;;;9.80;6.93;;;5.80;99.90;;;;;;5093095;28;20007;-67
2021/11/10 08:16:26;;;;;;;;;;;6.30;99.90;;;;;;5093016;28;20025;-67
2021/11/10 08:18:52;;;;;;;13.13;6.15;;;6.50;99.90;;;;;;5092659;28;19937;-67
2021/11/10 08:21:19;;;;;;;;;;;7.00;99.90;;;;;;5082498;28;20099;-67
2021/11/10 08:23:45;;;;;;;11.27;7.25;;;7.30;99.90;;;;;;5079553;28;19911;-67
2021/11/10 08:26:10;;;;;;;;;;;7.70;99.90;;;;;;5079577;28;20028;-67
2021/11/10 08:28:36;;;;;;;10.50;6.03;;;7.80;99.90;;;;;;5079274;28;20364;-67
2021/11/10 08:31:02;;;;;;;;;;;8.60;99.90;;;;;;5079477;28;20013;-67
2021/11/10 08:33:29;;;;;;;11.85;7.25;;;8.70;99.90;;;;;;5079045;28;19904;-67
2021/11/10 08:35:56;;;;;;;8.20;6.25;;;9.60;99.90;;;;;;5078896;28;20024;-67
2021/11/10 08:38:24;;;;;;;8.65;7.05;;;9.70;99.90;;;;;;5079024;28;20084;-67
2021/11/10 08:40:50;;;;;;;8.77;6.70;;;9.40;99.90;;;;;;5099342;28;20023;-67
2021/11/10 08:43:17;;;;;;;7.38;5.53;;;8.80;99.90;;;;;;5099194;28;20452;-67
2021/11/10 08:45:46;;;;;;;9.25;6.57;;;8.50;99.90;;;;;;5099312;28;20031;-67
2021/11/10 08:48:12;;;;;;;11.35;6.40;;;8.80;99.90;;;;;;5099085;28;20028;-67
2021/11/10 08:50:41;;;;;;;5.80;5.30;;;9.20;99.90;;;;;;5097876;28;20086;-67
2021/11/10 08:53:09;;;;;;;7.88;6.28;;;9.40;99.90;;;;;;5098759;28;20423;-67
2021/11/10 08:55:35;;;;;;;5.85;5.25;;;10.00;99.90;;;;;;5099035;28;20039;-68
2021/11/10 08:58:02;;;;;;;7.13;6.00;;;10.40;99.90;;;;;;5098864;28;20016;-67
2021/11/10 09:00:31;;;;;;;6.47;5.55;;;10.10;99.90;;;;;;5099024;28;20048;-67
2021/11/10 09:02:57;;;;;;;7.93;4.75;;;11.10;99.90;;;;;;5098389;28;20024;-67
2021/11/10 09:05:24;;;;;;;8.15;5.35;;;11.90;99.90;;;;;;5098910;28;20505;-68
2021/11/10 09:07:50;;;;;;;7.50;5.20;;;12.40;99.90;;;;;;5096914;28;20047;-68
2021/11/10 09:10:17;;;;;;;6.38;4.50;;;12.90;99.90;;;;;;5078363;28;20049;-67
2021/11/10 09:12:48;;;;;;;6.35;4.35;;;13.40;99.90;;;;;;5078630;28;20044;-68
2021/11/10 09:15:15;;;;;;;6.78;4.45;;;13.40;99.90;;;;;;5078471;28;20016;-67
2021/11/10 09:17:42;;;;;;;6.18;4.72;;;13.60;99.90;;;;;;5077965;28;20035;-68
2021/11/10 09:20:18;;;;;;;4.85;4.35;;;13.30;99.90;;;;;;5078323;28;20052;-68
2021/11/10 09:22:44;;;;;;;10.60;5.10;;;13.50;99.90;;;;;;5078222;28;20025;-68
2021/11/10 09:25:13;;;;;;;8.43;5.22;;;13.50;99.90;;;;;;5078152;28;20056;-68
2021/11/10 09:27:39;;;;;;;12.60;5.35;;;13.60;99.90;;;;;;5078166;28;20028;-68
2021/11/10 09:30:10;;;;;;;14.13;6.35;;;13.00;99.90;;;;;;5078189;28;20027;-68
2021/11/10 09:32:39;;;;;;;17.27;6.70;;;13.00;99.90;;;;;;5076634;28;20465;-68
2021/11/10 09:35:08;;;;;;;11.68;6.90;;;12.70;99.90;;;;;;5077979;28;20066;-68
2021/11/10 09:37:35;;;;;;;11.52;6.45;;;12.40;99.90;;;;;;5077690;28;20104;-68
2021/11/10 09:40:07;;;;;;;10.93;6.53;;;12.40;99.90;;;;;;5077847;28;20035;-68
2021/11/10 09:42:35;;;;;;;12.82;8.20;;;12.30;99.90;;;;;;5077769;28;20496;-68
2021/11/10 09:45:03;;;;;;;12.02;6.82;;;12.10;99.90;;;;;;5076330;28;20024;-68
2021/11/10 09:47:30;;;;;;;13.07;6.22;;;11.90;99.90;;;;;;5077685;28;20029;-68
2021/11/10 09:49:56;;;;;;;11.02;6.47;;;11.80;99.90;;;;;;5077507;28;20028;-68
2021/11/10 09:52:22;;;;;;;14.18;7.35;;;12.40;99.90;;;;;;5077727;28;20535;-68
2021/11/10 09:54:48;;;;;;;10.70;6.65;;;12.60;99.90;;;;;;5077436;28;20024;-69
2021/11/10 09:57:14;;;;;;;7.50;5.32;;;12.50;99.90;;;;;;5077796;28;20020;-68
2021/11/10 09:59:40;;;;;;;9.82;5.63;;;13.00;99.90;;;;;;5077543;28;20538;-68
2021/11/10 10:02:11;;;;;;;13.13;6.30;;;13.00;99.90;;;;;;5077248;28;20036;-69
2021/11/10 10:04:42;;;;;;;6.65;5.05;;;13.70;99.90;;;;;;5077162;28;20428;-69
2021/11/10 10:07:09;;;;;;;10.57;5.70;;;14.00;99.90;;;;;;5077346;28;20028;-69
2021/11/10 10:09:36;;;;;;;5.70;5.13;;;14.20;99.90;;;;;;5076993;28;20412;-69
2021/11/10 10:12:03;;;;;;;8.85;5.78;;;14.50;99.90;;;;;;5075995;28;20090;-69
2021/11/10 10:14:29;;;;;;;6.82;4.45;;;14.60;99.90;;;;;;5076984;28;20024;-69
2021/11/10 10:16:56;;;;;;;7.93;4.50;;;14.80;99.90;;;;;;5076673;28;20024;-69
2021/11/10 10:19:23;;;;;;;4.90;4.15;;;14.80;99.90;;;;;;5077203;28;20082;-69
2021/11/10 10:22:01;;;;;;;8.77;5.75;;;14.80;99.90;;;;;;5077168;28;20035;-69
2021/11/10 10:24:27;;;;;;;7.93;5.72;;;14.80;99.90;;;;;;5076845;28;20028;-69
2021/11/10 10:26:53;;;;;;;8.32;5.35;;;14.90;99.90;;;;;;5077193;28;20062;-69
2021/11/10 10:29:19;;;;;;;8.10;5.22;;;15.10;99.90;;;;;;5076736;28;20025;-69
2021/11/10 10:31:46;;;;;;;8.40;5.97;;;15.20;99.90;;;;;;5076775;28;20024;-69
2021/11/10 10:34:17;;;;;;;10.93;7.05;;;15.30;99.90;;;;;;5077017;28;20025;-70
2021/11/10 10:36:45;;;;;;;9.00;5.70;;;15.30;99.90;;;;;;5077158;28;20028;-69
2021/11/10 10:39:15;;;;;;;8.15;4.82;;;15.20;99.90;;;;;;5076682;28;20167;-70
2021/11/10 10:41:45;;;;;;;6.90;4.35;;;15.30;99.90;;;;;;5075382;28;20058;-70
2021/11/10 10:44:13;;;;;;;6.38;4.38;;;15.40;99.90;;;;;;5076614;28;20031;-70
2021/11/10 10:46:48;;;;;;;6.82;3.13;;;15.70;99.90;;;;;;5076420;28;20083;-70
2021/11/10 10:49:23;;;;;;;8.07;5.40;;;15.90;99.90;;;;;;5076963;28;20431;-70
2021/11/10 10:52:26;;;;;;;7.55;5.03;;;16.00;99.90;;;;;;5076507;28;20451;-70
2021/11/10 10:54:53;;;;;;;8.52;5.53;;;16.30;99.90;;;;;;4980839;28;20033;-70
2021/11/10 10:57:21;;;;;;;7.70;5.20;;;16.50;99.90;;;;;;5048316;28;20028;-70
2021/11/10 10:59:50;;;;;;;5.68;4.00;;;16.80;99.90;;;;;;5076661;28;20039;-70
2021/11/10 11:02:17;;;;;;;9.00;4.75;;;17.30;99.90;;;;;;5076552;28;20016;-70
2021/11/10 11:04:44;;;;;;;5.95;3.80;;;17.60;99.90;;;;;;5076515;28;20377;-70
2021/11/10 11:07:12;;;;;;;7.15;3.85;;;18.10;99.90;;;;;;5076609;28;20082;-70
2021/11/10 11:09:52;;;;;;;6.03;3.47;;;18.40;99.90;;;;;;5076236;28;20079;-70
2021/11/10 11:12:34;;;;;;;3.75;2.38;;;18.60;99.90;;;;;;5076529;28;20051;-70
2021/11/10 11:15:10;;;;;;;4.75;2.90;;;18.80;99.90;;;;;;5076372;28;20395;-70
2021/11/10 11:17:37;;;;;;;;;;;19.10;99.90;;;;;;5076529;28;20038;-70
2021/11/10 11:20:06;;;;;;;4.80;2.75;;;19.30;99.90;;;;;;5076630;28;20364;-71
2021/11/10 11:22:52;;;;;;;4.13;2.90;;;19.30;99.90;;;;;;5076342;28;20060;-71
2021/11/10 11:25:28;;;;;;;7.60;3.33;;;19.50;99.90;;;;;;5076396;28;20028;-71
2021/11/10 11:27:57;;;;;;;4.15;2.28;;;19.70;99.90;;;;;;5076486;28;20036;-71
2021/11/10 11:30:25;;;;;;;8.27;3.33;;;19.80;99.90;;;;;;5076280;28;20476;-70
2021/11/10 11:32:55;;;;;;;4.65;3.40;;;19.60;99.90;;;;;;5076076;28;20028;-71
2021/11/10 11:35:30;;;;;;;6.28;3.08;;;19.70;99.90;;;;;;5076201;28;20024;-70
2021/11/10 11:37:58;;;;;;;6.85;3.35;;;19.70;99.90;;;;;;5076173;28;20021;-71
2021/11/10 11:40:27;;;;;;;5.22;2.85;;;19.90;99.90;;;;;;5074897;28;20092;-71
2021/11/10 11:42:55;;;;;;;6.57;2.97;;;19.90;99.90;;;;;;5076379;28;20036;-71
2021/11/10 11:45:23;;;;;;;7.03;3.30;;;20.20;99.90;;;;;;5076087;28;20025;-71
2021/11/10 11:47:50;;;;;;;4.93;2.55;;;20.20;98.10;;;;;;5075915;28;20123;-71
2021/11/10 11:50:17;;;;;;;5.10;3.35;;;20.30;98.10;;;;;;5076151;28;20024;-71
2021/11/10 11:52:45;;;;;;;6.50;2.80;;;21.20;98.70;;;;;;5076212;28;20071;-71
2021/11/10 11:55:25;;;;;;;3.22;2.30;;;20.50;98.30;;;;;;5076331;28;20031;-71
2021/11/10 11:58:04;;;;;;;6.80;2.03;;;20.60;97.10;;;;;;5079843;28;20500;-71
2021/11/10 12:00:34;;;;;;;5.20;2.90;;;20.70;97.20;;;;;;5079844;28;20025;-71
2021/11/10 12:03:02;;;;;;;5.25;3.22;;;20.70;96.80;;;;;;5079522;28;20032;-71
2021/11/10 12:05:29;;;;;;;6.15;2.80;;;20.50;96.10;;;;;;5079647;28;20021;-71
2021/11/10 12:07:57;;;;;;;4.88;2.63;;;20.40;96.00;;;;;;5079383;28;20059;-71
2021/11/10 12:10:23;;;;;;;6.03;2.97;;;20.40;96.40;;;;;;5079294;28;20520;-71
2021/11/10 12:13:20;;;;;;;4.40;2.08;;;20.40;94.40;;;;;;5079430;28;20043;-71
2021/11/10 12:16:00;;;;;;;3.05;1.80;;;20.20;97.00;;;;;;5079640;28;20028;-71
2021/11/10 12:18:27;;;;;;;5.68;2.60;;;20.20;96.60;;;;;;5079245;28;20028;-71
2021/11/10 12:21:01;;;;;;;8.20;2.90;;;20.20;96.80;;;;;;5079263;28;20381;-71
2021/11/10 12:23:50;;;;;;;4.90;2.50;;;20.20;98.10;;;;;;5079343;28;20503;-71
2021/11/10 12:26:17;;;;;;;8.40;2.40;;;19.50;98.60;;;;;;5026560;28;20082;-71
2021/11/10 12:28:51;;;;;;;4.45;1.80;;;20.10;94.80;;;;;;5079377;28;20557;-71
2021/11/10 12:31:37;;;;;;;3.72;2.33;;;19.80;95.20;;;;;;5079434;28;20020;-70
2021/11/10 12:34:15;;;;;;;4.70;2.33;;;19.60;93.30;;;;;;5079082;28;20028;-71
2021/11/10 12:37:08;;;;;;;6.00;2.33;;;19.60;92.80;;;;;;5079094;28;20025;-70
2021/11/10 12:39:40;;;;;;;5.53;2.45;;;19.60;92.70;;;;;;5079223;28;20116;-70
2021/11/10 12:42:07;;;;;;;6.68;2.35;;;19.50;93.40;;;;;;5078896;28;20025;-70
2021/11/10 12:44:37;;;;;;;7.53;3.20;;;19.50;94.00;;;;;;5079060;28;20075;-71
2021/11/10 12:47:04;;;;;;;6.60;3.10;;;19.40;93.40;;;;;;5078621;28;20063;-71
2021/11/10 12:49:30;;;;;;;7.45;2.78;;;19.40;93.80;;;;;;5078812;28;20606;-70
2021/11/10 12:52:17;;;;;;;8.38;2.83;;;19.40;93.60;;;;;;5078675;28;20081;-70
2021/11/10 12:55:08;;;;;;;6.22;2.72;;;19.30;93.60;;;;;;5078882;28;20020;-70
2021/11/10 12:57:34;;;;;;;4.65;2.25;;;19.30;93.70;;;;;;5077342;28;20046;-71
2021/11/10 13:00:01;;;;;;;7.00;2.30;;;19.30;93.80;;;;;;5077229;28;20443;-71
2021/11/10 13:02:27;;;;;;;7.45;2.92;;;19.40;94.10;;;;;;5078465;28;20016;-70
2021/11/10 13:04:57;;;;;;;8.10;3.35;;;19.40;93.10;;;;;;5078518;28;20024;-70
2021/11/10 13:07:32;;;;;;;9.20;3.05;;;19.40;93.40;;;;;;5078453;28;20130;-70
2021/11/10 13:10:04;;;;;;;5.25;2.55;;;19.40;93.90;;;;;;5078195;28;20040;-70
2021/11/10 13:12:32;;;;;;;7.72;3.20;;;19.30;93.60;;;;;;5078397;28;20048;-70
2021/11/10 13:14:58;;;;;;;8.73;3.20;;;19.20;93.80;;;;;;5078292;28;20036;-70
2021/11/10 13:17:32;;;;;;;8.05;2.67;;;19.00;93.30;;;;;;5076686;28;20502;-70
2021/11/10 13:20:04;;;;;;;4.72;2.42;;;18.90;93.50;;;;;;5078451;28;20043;-70
2021/11/10 13:22:30;;;;;;;6.32;2.75;;;18.80;93.90;;;;;;5077980;28;20020;-70